Time;durP1;ratioP1;P1;durP2;ratioP2;P2;SDS_P1;SDS_P2;PMS_P1;PMS_P2;Temp;Humidity;BMP_temperature;BMP_pressure;BME280_temperature;BME280_humidity;BME280_pressure;Samples;Min_cycle;Max_cycle;Signal;HPM_P1;HPM_P2
2023/09/28 00:02:36;;;;;;;10.65;4.00;;;;;;;18.28;52.14;94893.22;4168621;28;20057;-68
2023/09/28 00:04:38;;;;;;;10.27;4.70;;;;;;;18.29;52.07;94886.09;4169004;28;20127;-68
2023/09/28 00:06:39;;;;;;;13.73;3.97;;;;;;;18.21;52.25;94890.56;4170209;28;20092;-67
2023/09/28 00:08:41;;;;;;;15.18;4.43;;;;;;;18.26;52.37;94889.13;4164735;28;20132;-69
2023/09/28 00:10:43;;;;;;;10.45;4.38;;;;;;;18.34;52.36;94883.63;4159775;28;20749;-68
2023/09/28 00:12:49;;;;;;;17.35;4.50;;;;;;;18.44;52.32;94885.91;4163529;28;20045;-69
2023/09/28 00:14:50;;;;;;;11.65;4.10;;;;;;;18.51;51.88;94886.72;4160548;28;20057;-68
2023/09/28 00:16:52;;;;;;;13.15;4.57;;;;;;;18.56;51.83;94889.56;4158912;28;21322;-67
2023/09/28 00:18:55;;;;;;;15.13;4.60;;;;;;;18.62;51.81;94881.59;4160129;28;20061;-69
2023/09/28 00:20:57;;;;;;;11.48;4.00;;;;;;;18.66;51.76;94881.22;4165239;28;20037;-68
2023/09/28 00:22:59;;;;;;;9.63;4.40;;;;;;;18.69;51.88;94873.66;4170490;28;20046;-67
2023/09/28 00:25:01;;;;;;;10.35;4.10;;;;;;;18.73;51.66;94874.88;4160931;28;20141;-69
2023/09/28 00:27:04;;;;;;;9.32;4.13;;;;;;;18.73;51.99;94877.50;4160510;28;20049;-69
2023/09/28 00:29:06;;;;;;;6.25;4.35;;;;;;;18.72;52.08;94873.25;4160551;28;20541;-68
2023/09/28 00:31:09;;;;;;;12.00;4.53;;;;;;;18.68;52.16;94877.31;4161144;28;20489;-68
2023/09/28 00:33:10;;;;;;;10.38;3.83;;;;;;;18.67;52.34;94875.72;4159592;28;20050;-66
2023/09/28 00:35:13;;;;;;;9.85;4.47;;;;;;;18.63;52.22;94869.97;4161622;28;20088;-67
2023/09/28 00:37:15;;;;;;;8.88;4.20;;;;;;;18.56;52.40;94877.13;4161365;28;20104;-68
2023/09/28 00:39:17;;;;;;;13.57;4.90;;;;;;;18.56;52.45;94874.50;4163520;28;20415;-68
2023/09/28 00:41:19;;;;;;;9.63;4.13;;;;;;;18.56;52.81;94882.44;4162024;28;20045;-68
2023/09/28 00:43:27;;;;;;;15.15;4.20;;;;;;;18.49;53.00;94881.59;4163395;28;20987;-68
2023/09/28 00:45:29;;;;;;;9.88;4.32;;;;;;;18.43;53.23;94882.41;4159911;28;20123;-68
2023/09/28 00:47:31;;;;;;;9.00;4.70;;;;;;;18.42;53.22;94881.59;4160286;28;20092;-66
2023/09/28 00:49:33;;;;;;;12.57;4.50;;;;;;;18.42;53.34;94884.25;4163394;28;20045;-68
2023/09/28 00:51:35;;;;;;;11.38;4.22;;;;;;;18.42;53.52;94886.91;4154809;28;20050;-69
2023/09/28 00:53:37;;;;;;;10.20;4.05;;;;;;;18.43;53.45;94887.72;4167399;28;20060;-67
2023/09/28 00:55:39;;;;;;;11.18;4.05;;;;;;;18.21;53.93;94887.09;4148139;28;20396;-68
2023/09/28 00:57:42;;;;;;;8.80;4.50;;;;;;;17.92;54.96;94877.66;4166659;28;20052;-67
2023/09/28 00:59:44;;;;;;;10.95;4.18;;;;;;;17.78;55.24;94879.41;4166372;28;20132;-67
2023/09/28 01:01:47;;;;;;;12.45;4.28;;;;;;;17.72;55.80;94878.38;4167972;28;20057;-68
2023/09/28 01:03:48;;;;;;;11.50;4.40;;;;;;;17.75;55.85;94883.28;4167017;28;20451;-69
2023/09/28 01:05:50;;;;;;;8.98;4.20;;;;;;;17.80;55.73;94875.53;4165603;28;20392;-69
2023/09/28 01:07:53;;;;;;;9.98;4.20;;;;;;;17.89;55.48;94878.06;4169006;28;20072;-68
2023/09/28 01:09:54;;;;;;;11.70;4.18;;;;;;;17.95;55.29;94869.31;4173389;28;20049;-69
2023/09/28 01:11:57;;;;;;;12.70;4.97;;;;;;;17.97;55.19;94873.38;4179038;28;20104;-69
2023/09/28 01:14:01;;;;;;;11.75;4.45;;;;;;;17.95;55.33;94878.06;4160430;28;20049;-69
2023/09/28 01:16:03;;;;;;;9.27;4.80;;;;;;;17.96;55.67;94879.72;4158531;28;20464;-68
2023/09/28 01:18:09;;;;;;;6.88;4.43;;;;;;;17.95;55.31;94875.41;4176384;28;20096;-67
2023/09/28 01:22:19;;;;;;;11.45;4.65;;;;;;;17.71;55.78;94878.59;4163011;28;20053;-67
2023/09/28 01:24:21;;;;;;;17.25;4.55;;;;;;;17.70;55.88;94880.44;4149712;28;20050;-68
2023/09/28 01:26:27;;;;;;;9.20;4.60;;;;;;;17.68;56.19;94881.63;4161606;28;20492;-68
2023/09/28 01:28:29;;;;;;;8.07;4.25;;;;;;;17.68;56.12;94882.47;4155821;28;20052;-67
2023/09/28 01:30:31;;;;;;;11.98;4.28;;;;;;;17.68;55.98;94876.31;4159558;28;20433;-69
2023/09/28 01:32:33;;;;;;;11.02;4.53;;;;;;;17.64;55.96;94878.56;4163197;28;20503;-67
2023/09/28 01:34:35;;;;;;;14.05;5.10;;;;;;;17.67;55.90;94880.00;4168013;28;20053;-68
2023/09/28 01:36:36;;;;;;;8.48;4.55;;;;;;;17.69;55.80;94880.63;4169657;28;20168;-69
2023/09/28 01:38:47;;;;;;;9.30;4.60;;;;;;;17.66;55.37;94883.66;4167383;28;20128;-68
2023/09/28 01:40:50;;;;;;;10.63;4.28;;;;;;;17.69;55.22;94886.72;4154944;28;20050;-68
2023/09/28 01:42:52;;;;;;;9.93;4.67;;;;;;;17.69;55.09;94885.91;4157785;28;20581;-67
2023/09/28 01:44:53;;;;;;;16.52;4.75;;;;;;;17.73;55.04;94885.31;4172997;28;20067;-67
2023/09/28 01:46:55;;;;;;;9.13;4.55;;;;;;;17.78;54.82;94888.16;4155801;28;20578;-67
2023/09/28 01:48:57;;;;;;;11.45;4.47;;;;;;;17.78;54.59;94877.56;4162316;28;20115;-67
2023/09/28 01:51:05;;;;;;;11.23;4.40;;;;;;;17.77;54.51;94889.19;4170518;28;20056;-69
2023/09/28 01:53:07;;;;;;;16.58;4.43;;;;;;;17.82;54.19;94885.97;4163378;28;20057;-72
2023/09/28 01:55:09;;;;;;;7.68;4.60;;;;;;;17.68;54.32;94881.63;4158307;28;20397;-68
2023/09/28 01:57:11;;;;;;;10.27;4.22;;;;;;;17.44;55.16;94881.09;4164337;28;20120;-67
2023/09/28 01:59:14;;;;;;;14.85;5.07;;;;;;;17.38;55.33;94881.94;4175846;28;20053;-69
2023/09/28 02:01:23;;;;;;;12.40;5.10;;;;;;;17.13;55.96;94879.75;4173097;28;20506;-68
2023/09/28 02:03:26;;;;;;;10.77;5.03;;;;;;;17.02;56.03;94888.22;4163689;28;20045;-68
2023/09/28 02:05:32;;;;;;;9.32;4.82;;;;;;;17.05;56.38;94881.72;4163961;28;20057;-68
2023/09/28 02:07:36;;;;;;;10.10;4.97;;;;;;;16.94;56.47;94885.72;4163196;28;20048;-68
2023/09/28 02:09:38;;;;;;;9.40;4.93;;;;;;;16.66;56.86;94883.06;4152108;28;20052;-69
2023/09/28 02:11:43;;;;;;;10.18;5.07;;;;;;;16.71;56.95;94883.28;4155349;28;20050;-69
2023/09/28 02:13:45;;;;;;;14.68;4.78;;;;;;;16.83;56.80;94883.63;4162272;28;20164;-67
2023/09/28 02:15:47;;;;;;;10.57;4.38;;;;;;;16.98;56.31;94876.41;4163623;28;20057;-68
2023/09/28 02:17:49;;;;;;;20.42;6.13;;;;;;;17.08;56.02;94882.16;4167899;28;20047;-69
2023/09/28 02:19:51;;;;;;;9.13;4.97;;;;;;;17.19;55.91;94894.03;4160547;28;20054;-67
2023/09/28 02:21:53;;;;;;;12.05;5.03;;;;;;;17.25;55.93;94889.78;4156873;28;20555;-68
2023/09/28 02:23:55;;;;;;;15.20;4.93;;;;;;;17.30;55.84;94892.66;4156880;28;20125;-69
2023/09/28 02:26:05;;;;;;;10.40;4.80;;;;;;;17.34;55.88;94893.91;4163168;28;20054;-69
2023/09/28 02:28:07;;;;;;;12.20;4.93;;;;;;;17.33;55.79;94884.31;4166028;28;20389;-67
2023/09/28 02:30:11;;;;;;;8.40;4.47;;;;;;;17.36;55.28;94883.94;4162157;28;20065;-72
2023/09/28 02:32:13;;;;;;;10.65;4.78;;;;;;;17.39;55.09;94892.28;4165937;28;20081;-69
2023/09/28 02:34:15;;;;;;;11.40;4.70;;;;;;;17.37;55.31;94894.31;4164859;28;20096;-69
2023/09/28 02:36:17;;;;;;;15.32;5.18;;;;;;;17.34;55.70;94904.50;4159213;28;20398;-69
2023/09/28 02:38:19;;;;;;;14.30;5.00;;;;;;;17.29;55.68;94896.31;4166301;28;20041;-68
2023/09/28 02:40:22;;;;;;;12.35;4.57;;;;;;;17.29;55.56;94904.25;4163152;28;20385;-68
2023/09/28 02:42:23;;;;;;;9.52;4.82;;;;;;;17.29;55.74;94891.03;4158295;28;20042;-69
2023/09/28 02:44:25;;;;;;;12.38;4.38;;;;;;;17.31;55.54;94903.03;4159822;28;20049;-68
2023/09/28 02:46:27;;;;;;;10.50;4.78;;;;;;;17.34;55.25;94901.88;4166253;28;20510;-69
2023/09/28 02:48:29;;;;;;;13.70;5.03;;;;;;;17.34;55.00;94904.50;4160730;28;20041;-68
2023/09/28 02:50:31;;;;;;;11.35;5.10;;;;;;;17.36;55.58;94907.78;4164046;28;20115;-68
2023/09/28 02:52:33;;;;;;;15.10;4.85;;;;;;;17.36;55.74;94908.59;4163984;28;20046;-68
2023/09/28 02:54:35;;;;;;;10.15;4.70;;;;;;;17.39;55.03;94899.44;4154497;28;20046;-68
2023/09/28 02:56:39;;;;;;;8.02;4.72;;;;;;;17.40;55.42;94911.66;4158089;28;20050;-69
2023/09/28 02:58:41;;;;;;;9.52;4.63;;;;;;;17.33;55.47;94905.50;4164821;28;20053;-68
2023/09/28 03:00:42;;;;;;;7.55;5.18;;;;;;;17.35;55.75;94906.13;4154199;28;20049;-71
2023/09/28 03:02:46;;;;;;;11.18;4.55;;;;;;;17.42;55.37;94914.09;4160542;28;20368;-68
2023/09/28 03:04:49;;;;;;;15.20;5.15;;;;;;;17.43;55.39;94921.88;4162923;28;20049;-68
2023/09/28 03:06:52;;;;;;;14.20;4.97;;;;;;;17.46;55.21;94916.16;4162273;28;20057;-69
2023/09/28 03:08:54;;;;;;;8.13;4.43;;;;;;;17.48;55.27;94914.13;4163915;28;20124;-68
2023/09/28 03:10:56;;;;;;;7.55;4.70;;;;;;;17.50;55.36;94911.31;4159647;28;20059;-69
2023/09/28 03:12:58;;;;;;;16.55;4.63;;;;;;;17.48;55.33;94913.31;4156130;28;20084;-69
2023/09/28 03:15:04;;;;;;;15.38;5.07;;;;;;;17.48;55.52;94908.03;4162709;28;20054;-68
2023/09/28 03:17:06;;;;;;;15.05;5.20;;;;;;;17.46;55.78;94900.28;4165510;28;20484;-67
2023/09/28 03:19:08;;;;;;;10.77;5.18;;;;;;;17.45;55.89;94909.25;4164099;28;20053;-68
2023/09/28 03:21:10;;;;;;;12.00;4.97;;;;;;;17.43;55.96;94907.81;4161775;28;20055;-69
2023/09/28 03:23:12;;;;;;;9.10;4.68;;;;;;;17.38;56.29;94906.56;4141472;28;20050;-67
2023/09/28 03:25:18;;;;;;;15.27;5.20;;;;;;;17.36;56.52;94905.94;4160926;28;20092;-69
2023/09/28 03:27:21;;;;;;;16.08;5.50;;;;;;;17.32;56.50;94904.69;4165423;28;20076;-69
2023/09/28 03:29:22;;;;;;;10.05;5.57;;;;;;;17.27;56.83;94906.28;4164233;28;20103;-67
2023/09/28 03:31:27;;;;;;;11.65;5.90;;;;;;;17.27;56.88;94901.00;4170715;28;20041;-68
2023/09/28 03:33:30;;;;;;;13.45;5.45;;;;;;;17.23;57.10;94907.69;4167659;28;20040;-69
2023/09/28 03:35:32;;;;;;;;;;;;;;;17.22;57.30;94903.41;4160697;28;20049;-67
2023/09/28 03:37:34;;;;;;;15.27;5.53;;;;;;;17.20;57.50;94900.94;4164672;28;19921;-69
2023/09/28 03:39:36;;;;;;;13.23;5.82;;;;;;;17.19;57.20;94896.69;4170191;28;20051;-67
2023/09/28 03:41:38;;;;;;;14.70;5.65;;;;;;;17.19;57.37;94900.16;4169012;28;20139;-68
2023/09/28 03:43:42;;;;;;;15.32;6.00;;;;;;;17.22;57.30;94904.22;4157602;28;20120;-72
2023/09/28 03:45:44;;;;;;;10.15;5.95;;;;;;;17.25;56.83;94908.31;4166919;28;20060;-68
2023/09/28 03:47:48;;;;;;;15.30;5.80;;;;;;;17.23;57.14;94905.88;4160132;28;20041;-69
2023/09/28 03:49:50;;;;;;;19.90;6.40;;;;;;;17.11;57.63;94905.59;4165547;28;20146;-69
2023/09/28 03:51:51;;;;;;;22.02;7.82;;;;;;;16.99;58.24;94917.72;4167602;28;20045;-69
2023/09/28 03:53:53;;;;;;;21.02;7.32;;;;;;;16.90;58.24;94909.09;4163796;28;20597;-69
2023/09/28 03:55:56;;;;;;;21.20;7.32;;;;;;;16.52;59.50;94919.16;4171952;28;20132;-69
2023/09/28 03:58:01;;;;;;;12.85;7.00;;;;;;;16.26;60.60;94925.84;4174119;28;20087;-69
2023/09/28 04:00:04;;;;;;;14.93;7.53;;;;;;;16.35;60.50;94922.06;4167233;28;20110;-69
2023/09/28 04:02:06;;;;;;;14.38;6.93;;;;;;;16.31;60.44;94920.81;4168793;28;20064;-68
2023/09/28 04:04:08;;;;;;;14.95;7.32;;;;;;;16.31;60.56;94914.72;4171811;28;20057;-71
2023/09/28 04:06:10;;;;;;;14.57;6.47;;;;;;;16.29;60.68;94914.09;4163200;28;20045;-71
2023/09/28 04:08:12;;;;;;;20.15;7.30;;;;;;;16.31;60.79;94907.59;4163635;28;20597;-69
2023/09/28 04:10:14;;;;;;;15.73;6.78;;;;;;;16.32;60.56;94909.22;4163024;28;20050;-70
2023/09/28 04:12:16;;;;;;;15.38;6.60;;;;;;;16.37;60.71;94911.31;4159580;28;20049;-69
2023/09/28 04:14:19;;;;;;;14.02;6.90;;;;;;;16.40;60.75;94910.94;4163890;28;20511;-71
2023/09/28 04:16:21;;;;;;;20.73;7.45;;;;;;;16.49;60.60;94903.69;4166499;28;20049;-67
2023/09/28 04:18:23;;;;;;;13.48;7.28;;;;;;;16.53;60.31;94916.31;4153247;28;20070;-68
2023/09/28 04:20:25;;;;;;;19.65;7.78;;;;;;;16.59;60.25;94914.75;4163970;28;20416;-70
2023/09/28 04:22:27;;;;;;;17.83;7.85;;;;;;;16.68;60.06;94910.16;4160003;28;20108;-68
2023/09/28 04:24:29;;;;;;;18.77;7.97;;;;;;;16.76;59.87;94913.47;4160290;28;20061;-70
2023/09/28 04:26:30;;;;;;;19.00;7.53;;;;;;;16.84;59.62;94912.53;4163281;28;20392;-69
2023/09/28 04:28:32;;;;;;;18.70;7.93;;;;;;;16.90;59.33;94909.09;4172165;28;20043;-70
2023/09/28 04:30:36;;;;;;;17.08;7.45;;;;;;;16.95;59.24;94913.81;4170207;28;20062;-70
2023/09/28 04:32:39;;;;;;;11.70;7.22;;;;;;;16.99;58.99;94905.31;4166886;28;20571;-69
2023/09/28 04:34:41;;;;;;;19.88;7.63;;;;;;;17.05;59.10;94916.94;4162020;28;20054;-69
2023/09/28 04:36:44;;;;;;;17.10;8.75;;;;;;;17.11;58.98;94918.81;4164951;28;20049;-70
2023/09/28 04:38:46;;;;;;;16.40;8.68;;;;;;;17.13;58.88;94922.09;4165131;28;20476;-72
2023/09/28 04:40:50;;;;;;;20.55;8.00;;;;;;;17.14;58.86;94922.91;4169550;28;20458;-70
2023/09/28 04:42:53;;;;;;;17.65;8.23;;;;;;;17.17;58.89;94927.81;4169372;28;20053;-71
2023/09/28 04:44:55;;;;;;;15.82;8.50;;;;;;;17.02;58.99;94927.94;4162548;28;20407;-70
2023/09/28 04:46:57;;;;;;;17.45;7.45;;;;;;;16.78;59.03;94929.97;4152627;28;20050;-69
2023/09/28 04:48:59;;;;;;;19.77;7.57;;;;;;;16.64;59.47;94927.41;4172025;28;20045;-69
2023/09/28 04:51:03;;;;;;;17.95;8.57;;;;;;;16.64;59.52;94935.34;4170659;28;20049;-68
2023/09/28 04:53:06;;;;;;;18.90;8.68;;;;;;;16.58;59.78;94944.84;4172261;28;20080;-71
2023/09/28 04:55:08;;;;;;;21.88;8.07;;;;;;;16.52;60.02;94940.31;4155284;28;20131;-70
2023/09/28 04:57:11;;;;;;;23.88;8.30;;;;;;;16.52;60.26;94927.09;4160962;28;20488;-71
2023/09/28 04:59:13;;;;;;;20.05;9.10;;;;;;;16.62;60.05;94937.34;4164556;28;20045;-71
2023/09/28 05:01:15;;;;;;;19.75;8.93;;;;;;;16.66;59.80;94938.63;4164426;28;20060;-74
2023/09/28 05:03:19;;;;;;;26.55;8.48;;;;;;;16.70;59.59;94940.69;4162829;28;20046;-73
2023/09/28 05:05:22;;;;;;;27.23;8.00;;;;;;;16.64;59.39;94935.34;4160526;28;20060;-70
2023/09/28 05:07:23;;;;;;;31.35;8.43;;;;;;;16.70;59.56;94939.88;4170111;28;20049;-72
2023/09/28 05:09:28;;;;;;;17.48;6.82;;;;;;;16.58;58.85;94939.56;4167070;28;20695;-71
2023/09/28 05:11:30;;;;;;;14.63;6.75;;;;;;;16.62;58.40;94940.00;4160163;28;20049;-71
2023/09/28 05:13:31;;;;;;;24.83;6.85;;;;;;;16.68;58.36;94941.88;4161251;28;20045;-71
2023/09/28 05:15:33;;;;;;;15.50;6.38;;;;;;;16.75;57.72;94943.56;4160057;28;20403;-70
2023/09/28 05:17:36;;;;;;;18.00;5.70;;;;;;;16.90;56.84;94934.75;4164456;28;20064;-70
2023/09/28 05:19:38;;;;;;;20.73;6.38;;;;;;;16.98;57.11;94940.72;4162897;28;20416;-70
2023/09/28 05:21:40;;;;;;;19.60;6.43;;;;;;;16.97;56.79;94944.41;4163063;28;20137;-69
2023/09/28 05:23:42;;;;;;;16.60;6.50;;;;;;;17.02;57.04;94940.34;4172512;28;20503;-69
2023/09/28 05:25:45;;;;;;;20.50;7.05;;;;;;;17.10;56.86;94943.66;4164511;28;20565;-70
2023/09/28 05:27:47;;;;;;;16.67;6.33;;;;;;;17.04;56.40;94944.44;4164370;28;20041;-70
2023/09/28 05:29:49;;;;;;;21.67;6.30;;;;;;;17.11;56.24;94942.66;4166144;28;20862;-70
2023/09/28 05:31:51;;;;;;;16.95;6.03;;;;;;;17.09;56.61;94946.50;4171020;28;20080;-70
2023/09/28 05:33:53;;;;;;;18.20;6.22;;;;;;;17.24;56.61;94955.16;4163409;28;20077;-70
2023/09/28 05:35:56;;;;;;;17.85;6.43;;;;;;;17.37;55.88;94951.78;4166072;28;20045;-70
2023/09/28 05:37:58;;;;;;;14.60;5.68;;;;;;;17.25;55.78;94951.50;4159731;28;20041;-71
2023/09/28 05:40:00;;;;;;;12.98;6.40;;;;;;;17.19;55.80;94955.75;4162816;28;20065;-71
2023/09/28 05:42:04;;;;;;;18.95;6.25;;;;;;;17.27;55.66;94953.94;4162099;28;20357;-70
2023/09/28 05:44:07;;;;;;;;;;;;;;;17.37;54.80;94955.22;4162793;28;20087;-70
2023/09/28 05:46:12;;;;;;;14.10;5.35;;;;;;;17.43;54.31;94956.28;4162389;28;20506;-70
2023/09/28 05:48:18;;;;;;;13.63;4.90;;;;;;;17.57;53.83;94952.72;4155510;28;20513;-71
2023/09/28 05:50:21;;;;;;;14.82;5.15;;;;;;;17.58;53.49;94956.97;4163303;28;20104;-70
2023/09/28 05:52:23;;;;;;;11.65;5.18;;;;;;;17.67;53.57;94954.19;4163498;28;20053;-73
2023/09/28 05:54:26;;;;;;;15.70;5.00;;;;;;;17.67;52.82;94959.47;4164278;28;20052;-70
2023/09/28 05:56:28;;;;;;;13.15;4.60;;;;;;;17.73;52.95;94954.19;4167201;28;20056;-71
2023/09/28 05:58:30;;;;;;;14.05;4.75;;;;;;;17.86;52.99;94961.44;4172584;28;20071;-70
2023/09/28 06:00:32;;;;;;;13.52;4.80;;;;;;;17.99;52.50;94964.13;4164060;28;20077;-70
2023/09/28 06:02:36;;;;;;;14.30;4.30;;;;;;;18.09;52.18;94962.91;4168730;28;20049;-71
2023/09/28 06:04:38;;;;;;;20.02;4.55;;;;;;;18.13;52.13;94958.84;4157545;28;20541;-71
2023/09/28 06:06:40;;;;;;;13.38;4.78;;;;;;;18.20;52.17;94959.72;4170458;28;20405;-71
2023/09/28 06:08:43;;;;;;;9.98;5.20;;;;;;;18.27;52.33;94962.38;4163322;28;20049;-71
2023/09/28 06:10:48;;;;;;;12.23;4.93;;;;;;;18.31;52.46;94961.78;4155488;28;20049;-71
2023/09/28 06:13:07;;;;;;;8.60;4.43;;;;;;;18.21;51.55;94964.78;4172664;28;20049;-70
2023/09/28 06:15:11;;;;;;;14.85;4.78;;;;;;;18.20;51.81;94962.38;4175717;28;20087;-69
2023/09/28 06:17:13;;;;;;;11.73;4.75;;;;;;;18.26;51.32;94952.78;4159464;28;20412;-69
2023/09/28 06:19:15;;;;;;;11.32;4.82;;;;;;;18.30;51.63;94960.13;4147886;28;20050;-71
2023/09/28 06:21:17;;;;;;;14.18;4.90;;;;;;;18.35;51.04;94963.00;4159243;28;20103;-71
2023/09/28 06:23:20;;;;;;;13.52;4.60;;;;;;;18.29;50.73;94953.19;4159010;28;20053;-69
2023/09/28 06:25:23;;;;;;;14.82;5.10;;;;;;;18.31;51.02;94955.66;4154166;28;20151;-72
2023/09/28 06:27:29;;;;;;;9.05;4.38;;;;;;;18.25;51.10;94956.47;4162030;28;20054;-70
2023/09/28 06:29:32;;;;;;;11.88;4.38;;;;;;;18.34;50.97;94957.91;4163572;28;20069;-70
2023/09/28 06:31:34;;;;;;;12.07;4.30;;;;;;;18.42;50.31;94963.03;4163569;28;20045;-70
2023/09/28 06:33:36;;;;;;;18.88;4.55;;;;;;;18.39;50.50;94964.25;4157015;28;20053;-70
2023/09/28 06:35:38;;;;;;;10.35;4.63;;;;;;;18.52;50.41;94965.28;4155964;28;20053;-69
2023/09/28 06:37:40;;;;;;;12.05;4.13;;;;;;;18.55;50.16;94967.53;4161908;28;20443;-70
2023/09/28 06:39:42;;;;;;;12.25;3.92;;;;;;;18.61;50.29;94964.09;4162346;28;20049;-70
2023/09/28 06:41:44;;;;;;;12.90;4.90;;;;;;;18.73;50.11;94965.09;4158823;28;20048;-69
2023/09/28 06:43:48;;;;;;;10.45;3.90;;;;;;;18.81;49.55;94964.94;4158164;28;20088;-69
2023/09/28 06:45:50;;;;;;;10.75;4.43;;;;;;;18.66;49.79;94968.78;4163029;28;20452;-70
2023/09/28 06:47:54;;;;;;;13.60;4.25;;;;;;;18.52;50.25;94970.56;4159298;28;20199;-70
2023/09/28 06:50:16;;;;;;;12.38;4.28;;;;;;;18.59;49.94;94971.44;4162275;28;20073;-70
2023/09/28 06:52:19;;;;;;;12.73;4.30;;;;;;;18.48;50.09;94966.72;4176321;28;20056;-70
2023/09/28 06:54:23;;;;;;;16.05;4.28;;;;;;;18.53;50.49;94975.69;4162486;28;20111;-71
2023/09/28 06:56:27;;;;;;;13.13;4.22;;;;;;;18.36;50.66;94977.09;4174592;28;20049;-72
2023/09/28 06:58:31;;;;;;;10.10;4.40;;;;;;;18.16;51.14;94979.69;4160307;28;20054;-71
2023/09/28 07:00:33;;;;;;;12.30;4.43;;;;;;;18.25;51.54;94983.78;4153998;28;20133;-71
2023/09/28 07:02:39;;;;;;;12.43;3.88;;;;;;;18.41;51.16;94978.13;4161137;28;20139;-70
2023/09/28 07:04:41;;;;;;;11.25;3.83;;;;;;;18.32;51.06;94978.50;4161541;28;20049;-71
2023/09/28 07:06:43;;;;;;;16.02;4.47;;;;;;;18.25;51.65;94983.78;4163146;28;20554;-72
2023/09/28 07:08:44;;;;;;;15.13;4.43;;;;;;;18.17;51.84;94981.31;4174724;28;20056;-69
2023/09/28 07:10:46;;;;;;;15.23;4.53;;;;;;;18.34;51.88;94979.94;4160492;28;20080;-72
2023/09/28 07:13:05;;;;;;;11.13;4.18;;;;;;;18.50;51.62;94985.88;4164228;28;20132;-72
2023/09/28 07:15:08;;;;;;;14.85;4.55;;;;;;;18.66;51.16;94982.03;4173937;28;20063;-71
2023/09/28 07:17:11;;;;;;;9.75;4.25;;;;;;;18.83;51.08;94983.31;4161265;28;20060;-70
2023/09/28 07:19:13;;;;;;;19.98;5.20;;;;;;;18.76;50.94;94985.94;4158176;28;20460;-70
2023/09/28 07:21:18;;;;;;;11.23;4.20;;;;;;;18.63;50.85;94994.69;4160805;28;20058;-73
2023/09/28 07:23:21;;;;;;;9.68;4.15;;;;;;;18.73;50.94;94994.28;4162139;28;20492;-71
2023/09/28 07:25:25;;;;;;;19.23;4.95;;;;;;;18.90;51.32;94988.63;4152439;28;20045;-73
2023/09/28 07:27:31;;;;;;;12.07;4.20;;;;;;;19.02;50.43;94981.69;4163635;28;20053;-70
2023/09/28 07:29:34;;;;;;;13.13;4.15;;;;;;;19.12;50.32;94983.91;4161887;28;20129;-70
2023/09/28 07:31:38;;;;;;;12.95;4.63;;;;;;;19.09;50.34;94984.34;4160505;28;20136;-69
2023/09/28 07:33:40;;;;;;;;;;;;;;;19.08;50.50;94983.53;4160064;28;20556;-69
2023/09/28 07:35:46;;;;;;;13.18;4.88;;;;;;;19.14;50.78;94981.88;4156662;28;19968;-70
2023/09/28 07:37:48;;;;;;;21.73;6.28;;;;;;;19.20;50.20;94976.56;4158270;28;20435;-70
2023/09/28 07:39:50;;;;;;;13.70;5.03;;;;;;;19.16;50.43;94979.84;4164295;28;20495;-71
2023/09/28 07:41:52;;;;;;;18.33;4.20;;;;;;;19.30;50.27;94981.47;4162999;28;20531;-72
2023/09/28 07:43:55;;;;;;;12.45;4.38;;;;;;;19.34;50.08;94977.38;4162632;28;20089;-72
2023/09/28 07:45:57;;;;;;;;;;;;;;;19.30;49.95;94981.47;4162671;28;20380;-71
2023/09/28 07:47:59;;;;;;;13.38;4.45;;;;;;;19.23;50.54;94985.97;4156659;28;19947;-71
2023/09/28 07:50:01;;;;;;;10.32;4.38;;;;;;;19.42;50.49;94979.00;4160471;28;20443;-70
2023/09/28 07:52:03;;;;;;;12.52;4.03;;;;;;;19.59;49.84;94982.84;4165119;28;20092;-73
2023/09/28 07:54:06;;;;;;;13.40;4.20;;;;;;;19.61;49.71;94983.44;4161312;28;20542;-72
2023/09/28 07:56:09;;;;;;;9.93;4.22;;;;;;;19.55;49.88;94972.84;4170426;28;20514;-71
2023/09/28 07:58:13;;;;;;;18.38;4.95;;;;;;;19.44;50.04;94980.44;4150164;28;20107;-74
2023/09/28 08:00:27;;;;;;;16.95;4.68;;;;;;;19.55;49.83;94973.66;4170747;28;20052;-74
2023/09/28 08:02:31;;;;;;;14.13;4.05;;;;;;;19.73;49.55;94974.88;4152332;28;20046;-72
2023/09/28 08:04:33;;;;;;;13.73;3.80;;;;;;;19.77;49.09;94984.06;4148599;28;21480;-71
2023/09/28 08:06:35;;;;;;;11.23;3.80;;;;;;;19.90;48.41;94985.88;4162215;28;20130;-72
2023/09/28 08:08:38;;;;;;;11.38;3.38;;;;;;;19.84;48.23;94974.22;4153375;28;20054;-73
2023/09/28 08:10:42;;;;;;;10.32;3.50;;;;;;;19.95;48.08;94980.72;4155895;28;20049;-70
2023/09/28 08:12:48;;;;;;;9.80;3.70;;;;;;;19.74;48.71;94984.47;4154165;28;20050;-71
2023/09/28 08:14:49;;;;;;;11.82;3.80;;;;;;;19.71;48.78;94977.75;4161931;28;20718;-71
2023/09/28 08:16:51;;;;;;;8.88;3.65;;;;;;;19.88;49.00;94983.41;4167757;28;20100;-70
2023/09/28 08:18:54;;;;;;;13.32;3.50;;;;;;;19.95;48.05;94981.53;4165151;28;20110;-71
2023/09/28 08:20:56;;;;;;;16.67;3.60;;;;;;;19.79;48.29;94979.38;4169449;28;20053;-71
2023/09/28 08:23:11;;;;;;;13.48;3.47;;;;;;;19.88;48.21;94982.59;4167745;28;20052;-73
2023/09/28 08:25:14;;;;;;;9.48;4.35;;;;;;;19.86;48.52;94979.34;4172123;28;20053;-69
2023/09/28 08:27:16;;;;;;;13.77;4.40;;;;;;;19.84;48.17;94983.00;4168040;28;20539;-70
2023/09/28 08:29:18;;;;;;;9.52;4.63;;;;;;;19.95;48.17;94980.72;4165439;28;20309;-71
2023/09/28 08:31:22;;;;;;;12.23;3.50;;;;;;;20.00;47.60;94976.44;4171918;28;20045;-73
2023/09/28 08:33:24;;;;;;;9.63;3.60;;;;;;;20.01;47.85;94971.91;4165382;28;20562;-71
2023/09/28 08:35:26;;;;;;;13.57;4.15;;;;;;;20.15;47.87;94977.97;4164748;28;20124;-69
2023/09/28 08:37:28;;;;;;;7.20;3.85;;;;;;;20.31;47.06;94971.38;4162766;28;20485;-70
2023/09/28 08:39:31;;;;;;;6.78;4.35;;;;;;;20.49;47.08;94978.63;4165905;28;20392;-73
2023/09/28 08:41:38;;;;;;;17.23;4.30;;;;;;;20.56;46.89;94980.22;4169283;28;20560;-71
2023/09/28 08:43:43;;;;;;;11.93;4.43;;;;;;;20.58;46.92;94964.06;4170137;28;20048;-73
2023/09/28 08:45:48;;;;;;;13.50;3.50;;;;;;;20.48;46.83;94974.31;4163965;28;20060;-70
2023/09/28 08:47:54;;;;;;;12.18;4.47;;;;;;;20.59;47.12;94973.69;4161419;28;20045;-72
2023/09/28 08:49:56;;;;;;;9.00;3.50;;;;;;;20.77;46.46;94965.78;4161521;28;20061;-71
2023/09/28 08:51:59;;;;;;;7.43;3.25;;;;;;;20.81;46.10;94966.16;4151215;28;20416;-71
2023/09/28 08:54:05;;;;;;;10.63;3.60;;;;;;;20.84;46.18;94971.06;4163610;28;20053;-72
2023/09/28 08:56:08;;;;;;;16.88;3.83;;;;;;;20.83;46.62;94964.09;4172978;28;20166;-71
2023/09/28 08:58:10;;;;;;;8.25;3.90;;;;;;;21.03;46.44;94967.41;4178498;28;20044;-73
2023/09/28 09:00:14;;;;;;;11.27;3.60;;;;;;;21.15;45.97;94978.19;4172926;28;20045;-74
2023/09/28 09:02:16;;;;;;;14.95;3.95;;;;;;;21.32;45.96;94969.66;4164014;28;20053;-71
2023/09/28 09:04:19;;;;;;;11.57;3.90;;;;;;;21.40;46.04;94974.69;4177313;28;20393;-71
2023/09/28 09:06:22;;;;;;;;;;;;;;;21.56;45.57;94968.81;4173060;28;20651;-73
2023/09/28 09:08:27;;;;;;;10.15;3.55;;;;;;;21.82;45.50;94970.38;4155150;28;20355;-73
2023/09/28 09:10:30;;;;;;;12.60;3.85;;;;;;;21.88;45.09;94952.69;4165642;28;20120;-73
2023/09/28 09:12:34;;;;;;;15.80;4.28;;;;;;;21.90;44.52;94963.97;4166537;28;20100;-72
2023/09/28 09:14:38;;;;;;;;;;;;;;;22.07;44.65;94966.84;4158190;28;20068;-69
2023/09/28 09:16:41;;;;;;;12.68;3.47;;;;;;;22.24;44.49;94961.69;4150101;28;20008;-71
2023/09/28 09:18:43;;;;;;;11.68;3.78;;;;;;;22.17;43.96;94958.28;4163887;28;20048;-70
2023/09/28 09:20:46;;;;;;;12.25;3.20;;;;;;;22.25;43.80;94958.00;4164304;28;20045;-69
2023/09/28 09:22:50;;;;;;;8.43;3.85;;;;;;;22.45;44.05;94955.88;4162496;28;20129;-70
2023/09/28 09:25:03;;;;;;;10.80;3.63;;;;;;;22.69;43.27;94951.44;4159743;28;20277;-68
2023/09/28 09:27:09;;;;;;;14.75;3.80;;;;;;;22.78;43.36;94951.94;4154901;28;20053;-70
2023/09/28 09:29:12;;;;;;;;;;;;;;;22.39;43.36;94950.63;4164863;28;20045;-71
2023/09/28 09:31:14;;;;;;;13.45;3.70;;;;;;;22.08;44.26;94955.91;4152647;28;19929;-70
2023/09/28 09:33:16;;;;;;;8.43;3.63;;;;;;;22.27;44.27;94950.59;4162543;28;20047;-71
2023/09/28 09:35:20;;;;;;;10.02;3.70;;;;;;;22.16;44.05;94946.00;4149492;28;20077;-71
2023/09/28 09:37:22;;;;;;;10.85;4.07;;;;;;;21.99;44.72;94951.94;4147490;28;20053;-69
2023/09/28 09:39:32;;;;;;;8.00;3.10;;;;;;;22.36;44.22;94956.44;4160755;28;20042;-71